Time;durP1;ratioP1;P1;durP2;ratioP2;P2;SDS_P1;SDS_P2;PMS_P1;PMS_P2;Temp;Humidity;BMP_temperature;BMP_pressure;BME280_temperature;BME280_humidity;BME280_pressure;Samples;Min_cycle;Max_cycle;Signal;HPM_P1;HPM_P2
2023/06/21 00:02:23;;;;;;;11.55;6.10;;;;;;;24.19;46.95;99723.25;7711606;32;39556;-88
2023/06/21 00:06:44;;;;;;;9.98;6.03;;;;;;;24.32;46.49;99719.16;7698058;32;37139;-88
2023/06/21 00:11:00;;;;;;;10.57;6.82;;;;;;;24.32;47.27;99732.28;7711557;32;39466;-88
2023/06/21 00:15:17;;;;;;;10.38;6.80;;;;;;;24.01;52.30;99736.78;7711440;32;40115;-88
2023/06/21 00:19:33;;;;;;;9.65;6.55;;;;;;;23.91;52.70;99735.38;7711194;32;38444;-88
2023/06/21 00:23:50;;;;;;;9.93;5.80;;;;;;;23.90;51.84;99725.38;7711456;32;37340;-89
2023/06/21 00:28:06;;;;;;;10.13;5.32;;;;;;;23.86;48.94;99720.94;7711251;32;39315;-89
2023/06/21 00:32:23;;;;;;;8.95;5.62;;;;;;;24.16;47.15;99732.31;7711276;32;40847;-88
2023/06/21 00:36:41;;;;;;;10.13;6.00;;;;;;;24.09;46.92;99734.94;7711279;32;38525;-87
2023/06/21 00:40:58;;;;;;;7.78;5.62;;;;;;;23.99;47.33;99739.94;7697738;32;37842;-88
2023/06/21 00:45:15;;;;;;;11.32;7.28;;;;;;;24.03;47.48;99739.22;7697531;32;40011;-88
2023/06/21 00:49:33;;;;;;;9.90;5.53;;;;;;;23.90;51.69;99732.94;7710981;32;40757;-89
2023/06/21 00:53:50;;;;;;;10.43;6.12;;;;;;;23.94;47.76;99737.44;7697384;32;37615;-88
2023/06/21 00:58:08;;;;;;;13.20;6.60;;;;;;;23.94;47.20;99743.00;7697237;32;36999;-87
2023/06/21 01:02:24;;;;;;;11.07;7.28;;;;;;;23.85;49.62;99749.94;7710881;32;38679;-87
2023/06/21 01:07:03;;;;;;;10.60;5.65;;;;;;;23.81;52.97;99738.72;7710702;32;39928;-87
2023/06/21 01:11:26;;;;;;;13.27;6.20;;;;;;;23.95;47.89;99747.38;7710582;32;38982;-88
2023/06/21 01:15:50;;;;;;;9.40;5.57;;;;;;;24.08;46.79;99738.94;7696735;32;37817;-87
2023/06/21 01:20:13;;;;;;;9.05;5.53;;;;;;;24.01;46.97;99742.34;7697008;32;40122;-88
2023/06/21 01:24:48;;;;;;;;;;;;;;;24.04;46.77;99746.38;7710839;32;41132;-88
2023/06/21 01:29:47;;;;;;;9.90;6.05;;;;;;;24.20;46.33;99744.34;7710337;32;38336;-87
2023/06/21 01:34:04;;;;;;;9.43;5.65;;;;;;;23.94;46.65;99743.00;7575405;33;36121;-87
2023/06/21 01:38:21;;;;;;;8.98;5.20;;;;;;;24.16;45.76;99732.31;7652632;32;39944;-87
2023/06/21 01:42:37;;;;;;;10.30;5.07;;;;;;;24.29;45.15;99730.22;7710132;32;39600;-88
2023/06/21 01:46:55;;;;;;;11.88;7.00;;;;;;;24.21;45.54;99734.81;7709779;32;38016;-88
2023/06/21 01:51:12;;;;;;;10.77;6.40;;;;;;;23.91;51.00;99743.72;7710092;32;36376;-87
2023/06/21 01:55:30;;;;;;;10.98;7.28;;;;;;;23.54;52.97;99740.41;7696226;32;39366;-88
2023/06/21 01:59:46;;;;;;;10.68;6.87;;;;;;;23.20;54.12;99742.78;7709835;32;39926;-88
2023/06/21 02:04:04;;;;;;;11.20;6.95;;;;;;;23.14;53.90;99739.44;7709585;32;38654;-88
2023/06/21 02:08:21;;;;;;;12.63;6.70;;;;;;;22.93;54.16;99750.00;7709495;32;37366;-88
2023/06/21 02:12:40;;;;;;;11.90;7.00;;;;;;;22.79;54.34;99734.53;7695665;32;40130;-89
2023/06/21 02:16:56;;;;;;;12.02;7.43;;;;;;;22.86;54.49;99751.41;7709209;32;40786;-88
2023/06/21 02:21:15;;;;;;;12.27;6.60;;;;;;;22.63;53.97;99744.81;7708934;32;37921;-87
2023/06/21 02:25:35;;;;;;;10.38;6.20;;;;;;;22.77;53.92;99744.41;7709053;32;37907;-87
2023/06/21 02:29:51;;;;;;;10.77;6.53;;;;;;;22.78;51.85;99744.03;7711488;32;39053;-87
2023/06/21 02:34:08;;;;;;;12.15;6.20;;;;;;;22.96;50.37;99736.19;7712690;32;40535;-87
2023/06/21 02:38:27;;;;;;;9.75;6.18;;;;;;;23.08;50.29;99740.06;7712156;32;37987;-87
2023/06/21 02:42:43;;;;;;;10.57;6.85;;;;;;;22.99;49.63;99743.81;7712662;32;36706;-87
2023/06/21 02:47:00;;;;;;;11.07;6.90;;;;;;;22.90;53.58;99745.94;7712487;32;39914;-88
2023/06/21 02:51:20;;;;;;;12.68;7.45;;;;;;;22.84;54.29;99742.63;7712433;32;39603;-87
2023/06/21 02:55:37;;;;;;;13.85;7.37;;;;;;;22.63;55.38;99747.59;7712437;32;38273;-87
2023/06/21 02:59:53;;;;;;;11.80;6.90;;;;;;;22.55;55.87;99738.25;7712290;32;36819;-87
2023/06/21 03:04:10;;;;;;;10.70;6.70;;;;;;;22.46;56.62;99741.16;7712294;32;40130;-88
2023/06/21 03:08:26;;;;;;;10.32;6.72;;;;;;;22.55;55.16;99746.56;7698554;32;39800;-88
2023/06/21 03:12:43;;;;;;;12.20;6.97;;;;;;;22.51;55.16;99740.13;7711864;32;37828;-88
2023/06/21 03:17:02;;;;;;;11.48;6.72;;;;;;;22.34;55.12;99746.78;7698560;32;37357;-88
2023/06/21 03:21:19;;;;;;;10.93;6.65;;;;;;;22.15;56.69;99757.69;7712103;32;40168;-87
2023/06/21 03:25:35;;;;;;;13.02;7.18;;;;;;;22.24;56.39;99756.38;7712039;32;41095;-87
2023/06/21 03:29:51;;;;;;;11.57;6.80;;;;;;;22.28;56.12;99748.16;7711820;32;37626;-87
2023/06/21 03:34:08;;;;;;;12.73;6.80;;;;;;;22.24;54.61;99739.72;7712005;32;37158;-88
2023/06/21 03:38:24;;;;;;;14.25;7.45;;;;;;;22.53;53.05;99742.53;7711563;32;40148;-88
2023/06/21 03:42:42;;;;;;;14.20;7.80;;;;;;;22.44;53.76;99742.69;7711866;32;40018;-87
2023/06/21 03:46:59;;;;;;;12.57;7.82;;;;;;;22.40;54.89;99739.78;7711762;32;37283;-87
2023/06/21 03:51:15;;;;;;;12.50;7.82;;;;;;;22.11;56.56;99743.66;7711783;32;36854;-87
2023/06/21 03:55:32;;;;;;;13.82;8.45;;;;;;;22.08;56.86;99750.75;7711680;32;40170;-87
2023/06/21 03:59:48;;;;;;;13.25;8.23;;;;;;;21.97;57.63;99751.56;7711641;32;40755;-87
2023/06/21 04:04:04;;;;;;;13.15;8.65;;;;;;;21.87;57.84;99755.63;7711541;32;37853;-87
2023/06/21 04:08:21;;;;;;;14.63;8.23;;;;;;;22.02;57.34;99763.22;7711597;32;38398;-87
2023/06/21 04:12:37;;;;;;;13.43;7.85;;;;;;;22.09;57.47;99777.34;7711582;32;39814;-87
2023/06/21 04:16:54;;;;;;;13.00;7.87;;;;;;;22.10;57.57;99792.84;7711404;32;40852;-86
2023/06/21 04:21:10;;;;;;;12.82;8.25;;;;;;;22.19;57.19;99792.69;7711290;32;37873;-87
2023/06/21 04:25:26;;;;;;;12.63;7.37;;;;;;;22.26;57.31;99800.44;7711285;32;37198;-87
2023/06/21 04:29:43;;;;;;;12.05;7.10;;;;;;;22.33;57.19;99811.00;7711276;32;39397;-87
2023/06/21 04:33:59;;;;;;;9.60;6.57;;;;;;;22.40;57.08;99806.44;7711256;32;40558;-88
2023/06/21 04:38:15;;;;;;;11.50;7.32;;;;;;;22.66;55.29;99819.94;7711056;32;38019;-76
2023/06/21 04:42:32;;;;;;;15.13;7.03;;;;;;;22.66;54.87;99813.53;7710374;32;37339;-76
2023/06/21 04:46:48;;;;;;;10.80;6.93;;;;;;;22.84;53.52;99817.66;7711227;32;39280;-76
2023/06/21 04:51:05;;;;;;;11.50;7.55;;;;;;;22.69;54.26;99824.75;7710110;32;40000;-76
2023/06/21 04:55:21;;;;;;;11.55;6.95;;;;;;;22.76;54.68;99812.25;7710516;32;37585;-76
2023/06/21 04:59:38;;;;;;;11.40;6.87;;;;;;;23.08;54.04;99804.00;7711067;32;37167;-75
2023/06/21 05:03:55;;;;;;;11.30;6.35;;;;;;;23.25;53.57;99810.06;7711047;32;40024;-76
2023/06/21 05:08:12;;;;;;;13.07;6.30;;;;;;;23.58;53.04;99802.56;7710862;32;41018;-76
2023/06/21 05:12:29;;;;;;;15.70;7.75;;;;;;;23.95;52.34;99800.28;7710872;32;39052;-74
2023/06/21 05:16:45;;;;;;;9.57;6.45;;;;;;;23.66;54.83;99790.41;7710806;32;36926;-76
2023/06/21 05:21:02;;;;;;;10.85;6.95;;;;;;;23.85;54.74;99803.63;7710586;32;40162;-76
2023/06/21 05:25:18;;;;;;;12.43;6.85;;;;;;;24.02;54.26;99799.62;7710526;32;39870;-78
2023/06/21 05:29:35;;;;;;;11.12;6.78;;;;;;;24.28;54.12;99798.22;7684145;32;38017;-78
2023/06/21 05:33:51;;;;;;;9.68;6.28;;;;;;;24.31;53.50;99791.94;7710495;32;37672;-72
2023/06/21 05:38:08;;;;;;;11.82;6.45;;;;;;;24.64;52.26;99808.19;7710393;32;39366;-76
2023/06/21 05:42:25;;;;;;;10.10;6.60;;;;;;;24.66;51.19;99808.63;7710208;32;40699;-78
2023/06/21 05:46:42;;;;;;;11.63;6.43;;;;;;;24.74;50.73;99796.44;7709753;32;37956;-78
2023/06/21 05:50:58;;;;;;;10.80;6.60;;;;;;;25.04;49.79;99790.25;7708750;32;37011;-79
2023/06/21 05:55:15;;;;;;;10.70;6.32;;;;;;;25.29;49.56;99792.72;7697135;32;39450;-77
2023/06/21 05:59:31;;;;;;;11.57;5.75;;;;;;;25.49;46.96;99791.50;7709745;32;40788;-77
2023/06/21 06:03:48;;;;;;;16.15;5.87;;;;;;;25.59;47.53;99789.22;7712056;32;37938;-77
2023/06/21 06:08:04;;;;;;;10.57;6.20;;;;;;;25.81;46.99;99791.19;7713094;32;38183;-78
2023/06/21 06:12:21;;;;;;;11.55;6.10;;;;;;;25.92;48.43;99779.37;7713062;32;40237;-78
2023/06/21 06:16:39;;;;;;;9.25;6.30;;;;;;;25.70;48.73;99787.44;7712994;32;40925;-79
2023/06/21 06:20:55;;;;;;;17.05;7.10;;;;;;;25.79;49.01;99787.97;7712357;32;37823;-77
2023/06/21 06:25:12;;;;;;;15.15;7.43;;;;;;;26.04;50.07;99799.56;7712923;32;38018;-78
2023/06/21 06:29:28;;;;;;;15.80;6.95;;;;;;;26.10;48.49;99788.84;7704288;32;273208;-77
2023/06/21 06:33:44;;;;;;;12.10;5.70;;;;;;;26.08;48.91;99791.22;7712712;32;39775;-82
2023/06/21 06:38:01;;;;;;;9.82;5.87;;;;;;;26.14;44.93;99792.50;7698974;32;38788;-76
2023/06/21 06:42:17;;;;;;;9.48;5.75;;;;;;;26.49;46.86;99783.00;7712651;32;37063;-77
2023/06/21 06:46:34;;;;;;;8.23;5.28;;;;;;;26.93;43.87;99787.13;7712631;32;39944;-77
2023/06/21 06:50:50;;;;;;;12.00;6.18;;;;;;;27.11;43.21;99781.72;7711110;32;40769;-86
2023/06/21 06:55:07;;;;;;;10.05;5.72;;;;;;;27.30;43.14;99781.56;7708710;32;37921;-86
2023/06/21 06:59:23;;;;;;;12.27;6.20;;;;;;;27.68;42.58;99787.87;7708635;32;37860;-86
2023/06/21 07:03:43;;;;;;;9.93;5.40;;;;;;;27.96;42.26;99792.09;7710143;32;39315;-86
2023/06/21 07:08:00;;;;;;;9.82;6.03;;;;;;;28.07;42.65;99780.94;7710271;32;40072;-87
2023/06/21 07:12:16;;;;;;;10.75;5.90;;;;;;;28.20;40.85;99781.41;7710339;32;38693;-87
2023/06/21 07:16:40;;;;;;;9.80;5.60;;;;;;;28.46;41.81;99786.75;7709983;32;37847;-87
2023/06/21 07:20:56;;;;;;;12.95;6.15;;;;;;;28.42;40.27;99785.94;7709240;32;38728;-88
2023/06/21 07:25:14;;;;;;;12.13;5.82;;;;;;;28.36;40.90;99792.31;7710277;32;40772;-86
2023/06/21 07:29:31;;;;;;;13.98;6.22;;;;;;;28.62;41.05;99791.25;7707202;32;38795;-88
2023/06/21 07:33:49;;;;;;;9.38;5.82;;;;;;;28.88;41.02;99790.13;7708839;32;38099;-88
2023/06/21 07:38:06;;;;;;;11.95;5.95;;;;;;;29.07;41.77;99788.97;7708431;32;40986;-88
2023/06/21 07:42:23;;;;;;;9.80;6.12;;;;;;;29.16;42.08;99786.63;7708661;32;40862;-88
2023/06/21 07:46:39;;;;;;;10.57;6.25;;;;;;;29.51;41.31;99792.66;7695490;32;37825;-84
2023/06/21 07:50:56;;;;;;;12.55;6.60;;;;;;;29.84;41.21;99788.69;7698233;32;37117;-83
2023/06/21 07:55:12;;;;;;;9.25;5.95;;;;;;;29.81;40.86;99769.03;7711849;32;40085;-83
2023/06/21 07:59:30;;;;;;;11.35;6.15;;;;;;;29.56;42.06;99755.75;7711904;32;39750;-83
2023/06/21 08:03:46;;;;;;;10.98;6.37;;;;;;;30.01;41.96;99766.56;7711749;32;37846;-82
2023/06/21 08:08:02;;;;;;;9.45;6.12;;;;;;;29.85;41.73;99795.09;7711715;32;36923;-83
2023/06/21 08:12:19;;;;;;;11.45;6.57;;;;;;;30.15;41.44;99798.25;7697143;32;39426;-76
2023/06/21 08:16:37;;;;;;;10.43;6.40;;;;;;;30.36;41.11;99793.03;7711632;32;39926;-82
2023/06/21 08:20:53;;;;;;;10.05;6.05;;;;;;;30.62;40.07;99808.59;7711460;32;38916;-81
2023/06/21 08:25:13;;;;;;;14.60;6.22;;;;;;;30.59;40.66;99815.81;7697110;32;37329;-80
2023/06/21 08:29:29;;;;;;;12.48;6.60;;;;;;;30.78;40.56;99819.34;7711421;32;39047;-85
2023/06/21 08:33:46;;;;;;;21.17;7.45;;;;;;;31.19;40.74;99813.13;7711471;32;40217;-83
2023/06/21 08:38:02;;;;;;;11.07;6.95;;;;;;;31.61;39.70;99814.06;7711290;32;38629;-86
2023/06/21 08:42:37;;;;;;;13.15;6.50;;;;;;;31.16;40.04;99825.22;7711237;32;37595;-87
2023/06/21 08:46:55;;;;;;;11.10;6.53;;;;;;;32.19;38.17;99823.59;7711208;32;40166;-86
2023/06/21 08:51:12;;;;;;;12.07;6.35;;;;;;;31.94;37.73;99812.56;7697962;32;39714;-87
2023/06/21 08:55:31;;;;;;;10.57;6.75;;;;;;;32.30;37.82;99817.03;7697396;32;37674;-84
2023/06/21 08:59:59;;;;;;;10.98;6.47;;;;;;;32.18;37.68;99816.38;7696752;32;38312;-88
2023/06/21 09:04:17;;;;;;;10.23;6.05;;;;;;;32.25;39.32;99820.31;7698355;32;39070;-86
2023/06/21 09:08:37;;;;;;;19.77;6.78;;;;;;;32.44;38.78;99816.88;7711224;32;39432;-87
2023/06/21 09:12:55;;;;;;;12.13;6.25;;;;;;;31.86;39.59;99813.03;7712815;32;38705;-82
2023/06/21 09:17:13;;;;;;;12.27;6.20;;;;;;;32.51;39.25;99811.16;7714370;32;36910;-84
2023/06/21 09:21:30;;;;;;;11.35;6.37;;;;;;;32.87;38.60;99810.72;7715427;32;39264;-88
2023/06/21 09:25:48;;;;;;;10.90;6.22;;;;;;;32.64;39.68;99814.25;7715223;32;41019;-88
2023/06/21 09:30:05;;;;;;;10.40;6.57;;;;;;;32.88;38.86;99812.31;7714059;32;37940;-84
2023/06/21 09:34:42;;;;;;;12.50;5.93;;;;;;;32.61;39.23;99817.91;7715087;32;38235;-88
2023/06/21 09:39:11;;;;;;;10.80;6.32;;;;;;;32.67;39.40;99821.09;7719446;32;40320;-83
2023/06/21 09:43:28;;;;;;;11.90;6.57;;;;;;;32.98;39.17;99818.25;7719915;32;40435;-82
2023/06/21 09:47:44;;;;;;;9.88;6.53;;;;;;;33.19;37.35;99817.97;7711257;32;38184;-84
2023/06/21 09:52:01;;;;;;;13.85;6.87;;;;;;;32.84;36.38;99816.41;7710304;32;37700;-89
2023/06/21 09:56:19;;;;;;;10.38;6.05;;;;;;;33.30;37.62;99821.41;7696663;32;39342;-90
2023/06/21 10:00:36;;;;;;;10.30;6.57;;;;;;;33.17;37.95;99813.97;7709373;32;39855;-89
2023/06/21 10:04:54;;;;;;;13.73;7.30;;;;;;;33.12;37.71;99818.06;7709628;32;38907;-88
2023/06/21 10:09:11;;;;;;;12.35;6.60;;;;;;;33.25;37.69;99821.91;7709783;32;38660;-88
2023/06/21 10:13:28;;;;;;;11.60;7.35;;;;;;;33.01;36.75;99814.56;7709654;32;39294;-87
2023/06/21 10:17:46;;;;;;;10.40;6.60;;;;;;;32.48;37.64;99828.94;7711182;32;40945;-85
2023/06/21 10:22:20;;;;;;;13.32;7.28;;;;;;;31.99;38.31;99840.31;7699717;32;38726;-86
2023/06/21 10:26:37;;;;;;;11.18;6.62;;;;;;;32.40;37.67;99840.72;7694997;32;37478;-88
2023/06/21 10:30:58;;;;;;;10.45;6.47;;;;;;;32.20;37.23;99835.66;7708855;32;39868;-88
2023/06/21 10:35:21;;;;;;;9.25;6.55;;;;;;;32.24;38.14;99835.66;7708917;32;40843;-88
2023/06/21 10:39:37;;;;;;;14.95;7.03;;;;;;;32.18;39.38;99838.12;7695669;32;37605;-88
2023/06/21 10:43:56;;;;;;;12.85;7.32;;;;;;;32.09;40.40;99847.06;7708626;32;37142;-89
2023/06/21 10:48:13;;;;;;;13.55;7.50;;;;;;;32.15;40.91;99845.41;7709003;32;39314;-90
2023/06/21 10:52:31;;;;;;;13.52;8.00;;;;;;;32.22;40.22;99855.00;7712690;32;40197;-88
2023/06/21 10:56:47;;;;;;;10.27;7.43;;;;;;;32.28;40.12;99856.94;7712962;32;37519;-88
2023/06/21 11:01:04;;;;;;;13.10;7.47;;;;;;;32.16;39.72;99849.81;7700964;32;37142;-87
2023/06/21 11:05:23;;;;;;;14.15;8.18;;;;;;;32.19;40.99;99857.44;7700219;32;40332;-85
2023/06/21 11:09:39;;;;;;;13.30;8.65;;;;;;;32.04;40.73;99861.59;7708917;32;39715;-89
2023/06/21 11:13:56;;;;;;;14.90;7.72;;;;;;;31.69;41.38;99855.06;7686312;32;37943;-87
2023/06/21 11:18:18;;;;;;;17.00;8.15;;;;;;;31.79;41.34;99856.19;7697844;32;37855;-87
2023/06/21 11:22:35;;;;;;;14.48;8.63;;;;;;;31.81;43.31;99848.91;7714154;32;37611;-85
2023/06/21 11:26:53;;;;;;;12.18;8.13;;;;;;;31.69;41.93;99855.06;7704143;32;40566;-84
2023/06/21 11:31:20;;;;;;;15.10;8.35;;;;;;;31.70;42.84;99841.75;7702984;32;37549;-84
2023/06/21 11:35:49;;;;;;;15.45;8.20;;;;;;;31.76;43.25;99840.91;7710605;32;37901;-88
2023/06/21 11:40:08;;;;;;;16.35;8.90;;;;;;;31.81;44.69;99831.19;7675307;32;39914;-88
2023/06/21 11:44:26;;;;;;;20.65;9.35;;;;;;;31.70;43.69;99810.75;7710827;32;39433;-86
2023/06/21 11:48:43;;;;;;;16.45;8.85;;;;;;;31.82;41.71;99819.50;7708035;32;37940;-87
2023/06/21 11:53:26;;;;;;;17.30;9.25;;;;;;;31.91;41.66;99812.56;7710637;32;37128;-84
2023/06/21 11:57:44;;;;;;;13.85;9.18;;;;;;;31.82;43.83;99815.88;7709383;32;39453;-86
2023/06/21 12:02:20;;;;;;;13.32;8.82;;;;;;;31.96;40.10;99810.13;7712162;32;40083;-88
2023/06/21 12:06:37;;;;;;;12.95;9.05;;;;;;;32.62;40.28;99804.63;7710531;32;37451;-87
2023/06/21 12:11:00;;;;;;;22.87;9.63;;;;;;;33.21;36.96;99798.56;7710579;32;36789;-84
2023/06/21 12:15:16;;;;;;;10.98;7.80;;;;;;;33.77;37.05;99794.47;7714372;32;40031;-84
2023/06/21 12:19:33;;;;;;;12.50;7.32;;;;;;;34.05;34.31;99791.12;7711469;32;40120;-83
2023/06/21 12:23:56;;;;;;;17.17;8.10;;;;;;;35.01;33.17;99788.78;7708996;32;38379;-84
2023/06/21 12:28:13;;;;;;;12.00;7.72;;;;;;;35.00;32.17;99790.84;7698121;32;37825;-84
2023/06/21 12:32:33;;;;;;;17.40;8.02;;;;;;;35.20;31.10;99804.13;7710648;32;39395;-84
2023/06/21 12:36:51;;;;;;;11.70;7.40;;;;;;;35.34;30.42;99800.97;7697301;32;40004;-85
2023/06/21 12:41:08;;;;;;;23.00;7.50;;;;;;;35.69;32.56;99801.34;7710966;32;37442;-85
2023/06/21 12:45:24;;;;;;;11.48;7.07;;;;;;;35.89;30.90;99799.22;7709650;32;37138;-84
2023/06/21 12:49:45;;;;;;;13.98;7.95;;;;;;;36.42;32.59;99795.37;7694101;32;39455;-83
2023/06/21 12:54:14;;;;;;;11.85;8.45;;;;;;;36.58;29.72;99789.63;7678829;32;40806;-83
2023/06/21 12:58:30;;;;;;;10.75;7.22;;;;;;;36.14;30.56;99791.28;7709971;32;38764;-83
2023/06/21 13:02:47;;;;;;;13.43;8.00;;;;;;;36.24;30.78;99790.22;7710712;32;37117;-84
2023/06/21 13:07:03;;;;;;;11.40;7.47;;;;;;;36.45;31.22;99788.81;7711015;32;39006;-84
2023/06/21 13:11:21;;;;;;;11.45;7.70;;;;;;;36.80;30.90;99780.47;7709566;32;40898;-84
2023/06/21 13:15:37;;;;;;;12.82;7.62;;;;;;;36.91;28.72;99786.63;7710800;32;38132;-83
2023/06/21 13:19:54;;;;;;;13.15;7.57;;;;;;;36.92;28.81;99774.00;7710861;32;37426;-84
2023/06/21 13:24:10;;;;;;;11.38;7.10;;;;;;;37.65;30.50;99761.12;7710334;32;39925;-84
2023/06/21 13:28:26;;;;;;;11.98;6.93;;;;;;;38.02;27.61;99755.78;7707626;32;39899;-84
2023/06/21 13:32:44;;;;;;;13.65;7.22;;;;;;;37.54;27.19;99759.44;7692555;32;38015;-84
2023/06/21 13:37:00;;;;;;;11.50;7.43;;;;;;;37.38;27.63;99751.84;7709832;32;37861;-83
2023/06/21 13:41:17;;;;;;;10.93;6.82;;;;;;;37.53;28.57;99748.50;7710000;32;40153;-83
2023/06/21 13:45:33;;;;;;;14.80;7.53;;;;;;;37.51;27.86;99745.34;7683542;32;40602;-84
2023/06/21 13:49:50;;;;;;;11.02;6.95;;;;;;;37.82;28.36;99736.16;7716167;32;38073;-83
2023/06/21 13:54:07;;;;;;;12.32;6.90;;;;;;;37.60;28.63;99739.72;7709135;32;37963;-84
2023/06/21 13:58:25;;;;;;;13.75;7.30;;;;;;;37.46;28.29;99743.06;7704639;32;39838;-84
2023/06/21 14:02:42;;;;;;;9.32;6.45;;;;;;;37.53;27.47;99743.63;7736362;32;39180;-83
2023/06/21 14:06:59;;;;;;;9.13;6.82;;;;;;;37.87;27.34;99739.22;7736441;32;38044;-84
2023/06/21 14:11:15;;;;;;;12.57;7.20;;;;;;;37.60;27.27;99753.94;7736502;32;36768;-83
2023/06/21 14:15:32;;;;;;;12.88;7.05;;;;;;;36.70;29.22;99754.00;7736317;32;39456;-83
2023/06/21 14:19:49;;;;;;;14.90;6.75;;;;;;;36.68;28.34;99755.69;7736167;32;39913;-83
2023/06/21 14:24:05;;;;;;;10.90;7.47;;;;;;;37.66;27.93;99755.00;7737942;32;37648;-83
2023/06/21 14:28:22;;;;;;;10.27;6.50;;;;;;;37.10;27.95;99753.56;7739469;32;37120;-83
2023/06/21 14:32:39;;;;;;;12.85;7.15;;;;;;;36.60;27.65;99755.09;7739667;32;39418;-83
2023/06/21 14:36:56;;;;;;;16.00;6.55;;;;;;;36.57;27.62;99751.13;7739349;32;39645;-84
2023/06/21 14:41:13;;;;;;;12.02;6.43;;;;;;;36.82;29.06;99749.56;7739380;32;37888;-84
2023/06/21 14:45:30;;;;;;;10.98;6.47;;;;;;;36.14;28.84;99745.88;7739583;32;37906;-83
2023/06/21 14:49:46;;;;;;;11.20;6.72;;;;;;;36.04;29.00;99762.75;7739670;32;40031;-84
2023/06/21 14:54:04;;;;;;;10.02;6.32;;;;;;;36.03;28.14;99760.34;7739441;32;40576;-84
2023/06/21 14:58:20;;;;;;;15.32;6.15;;;;;;;35.94;29.45;99763.03;7739545;32;38871;-83
2023/06/21 15:02:37;;;;;;;9.27;6.65;;;;;;;36.17;28.86;99757.13;7739296;32;37891;-83
2023/06/21 15:06:53;;;;;;;10.68;6.30;;;;;;;36.07;28.73;99763.91;7739478;32;39810;-83
2023/06/21 15:11:10;;;;;;;11.43;6.28;;;;;;;35.97;29.28;99750.81;7739204;32;40920;-83
2023/06/21 15:15:27;;;;;;;12.98;6.05;;;;;;;36.26;29.26;99743.09;7739147;32;37973;-84
2023/06/21 15:19:44;;;;;;;10.40;5.93;;;;;;;36.66;29.27;99737.03;7739189;32;37111;-84
2023/06/21 15:24:02;;;;;;;10.38;6.35;;;;;;;36.88;27.27;99724.25;7738954;32;39431;-83
2023/06/21 15:28:18;;;;;;;10.45;6.47;;;;;;;36.72;27.51;99731.66;7738814;32;39844;-83
2023/06/21 15:32:35;;;;;;;12.30;5.93;;;;;;;37.17;27.07;99732.63;7738947;32;37989;-84
2023/06/21 15:36:51;;;;;;;12.32;6.15;;;;;;;37.00;27.44;99744.13;7738430;32;36795;-84
2023/06/21 15:41:08;;;;;;;10.93;6.82;;;;;;;37.21;26.12;99747.56;7738759;32;40140;-83
2023/06/21 15:45:25;;;;;;;20.67;6.95;;;;;;;36.60;27.33;99760.75;7738670;32;39998;-84
2023/06/21 15:49:45;;;;;;;8.98;6.12;;;;;;;36.43;28.69;99754.41;7738621;32;38672;-83
2023/06/21 15:54:01;;;;;;;10.88;6.50;;;;;;;36.42;29.50;99749.97;7738852;32;37836;-84
2023/06/21 15:58:18;;;;;;;12.98;6.85;;;;;;;36.60;28.85;99747.38;7738690;32;39120;-84
2023/06/21 16:02:34;;;;;;;10.73;6.60;;;;;;;35.65;29.13;99749.59;7738542;32;40278;-84
2023/06/21 16:06:51;;;;;;;10.30;7.07;;;;;;;35.73;29.40;99742.53;7738328;32;38681;-84
2023/06/21 16:11:09;;;;;;;12.55;7.12;;;;;;;36.04;29.53;99747.78;7738729;32;38729;-84
2023/06/21 16:15:25;;;;;;;12.95;7.32;;;;;;;36.55;28.65;99747.13;7738574;32;40023;-84
2023/06/21 16:19:43;;;;;;;13.30;7.07;;;;;;;36.43;29.20;99752.34;7737786;32;40049;-84
2023/06/21 16:24:00;;;;;;;12.30;7.22;;;;;;;36.15;29.22;99759.59;7738050;32;37631;-84
2023/06/21 16:28:16;;;;;;;18.73;6.60;;;;;;;36.08;30.27;99765.47;7738110;32;37854;-83
2023/06/21 16:32:33;;;;;;;9.63;6.72;;;;;;;36.14;30.30;99769.38;7738347;32;39976;-84
2023/06/21 16:36:49;;;;;;;10.77;7.00;;;;;;;35.51;30.17;99774.25;7738437;32;39946;-84
2023/06/21 16:41:05;;;;;;;10.45;6.93;;;;;;;35.51;30.99;99774.25;7738130;32;37564;-84
2023/06/21 16:45:22;;;;;;;11.12;7.15;;;;;;;35.66;29.80;99768.22;7737673;32;37962;-84
2023/06/21 16:49:42;;;;;;;12.15;7.82;;;;;;;35.60;30.53;99758.63;7737599;32;40170;-84
2023/06/21 16:53:59;;;;;;;12.90;7.70;;;;;;;35.68;30.17;99762.88;7737951;32;38924;-84
2023/06/21 16:58:15;;;;;;;10.32;7.25;;;;;;;34.75;31.86;99755.38;7738017;32;38447;-84
2023/06/21 17:02:32;;;;;;;14.52;7.32;;;;;;;34.61;32.84;99741.50;7737864;32;38288;-84
2023/06/21 17:06:49;;;;;;;9.70;6.97;;;;;;;34.82;32.27;99739.47;7737822;32;39629;-84
2023/06/21 17:11:05;;;;;;;10.40;6.53;;;;;;;35.00;32.04;99734.19;7737731;32;39580;-84
2023/06/21 17:15:22;;;;;;;13.93;7.72;;;;;;;34.77;32.44;99720.97;7737668;32;38037;-84
2023/06/21 17:19:42;;;;;;;10.98;6.37;;;;;;;34.35;33.07;99735.59;7737585;32;37838;-84
2023/06/21 17:23:58;;;;;;;14.60;7.68;;;;;;;34.12;34.22;99741.31;7737443;32;40094;-84
2023/06/21 17:28:15;;;;;;;12.57;7.55;;;;;;;34.19;35.84;99760.97;7737226;32;40014;-83
2023/06/21 17:32:32;;;;;;;12.10;7.30;;;;;;;33.85;37.73;99776.94;7737359;32;37650;-84
2023/06/21 17:36:48;;;;;;;11.30;7.45;;;;;;;33.97;36.19;99786.81;7737297;32;37351;-84
2023/06/21 17:41:05;;;;;;;14.02;7.60;;;;;;;33.67;37.35;99796.25;7737227;32;40110;-84
2023/06/21 17:45:22;;;;;;;14.30;7.97;;;;;;;33.49;37.78;99799.34;7737122;32;40643;-84
2023/06/21 17:49:38;;;;;;;15.55;7.68;;;;;;;33.34;38.91;99793.16;7736936;32;38661;-84
2023/06/21 17:53:56;;;;;;;21.58;7.22;;;;;;;33.30;39.15;99804.47;7736899;32;37257;-84
2023/06/21 17:58:12;;;;;;;13.82;7.93;;;;;;;33.15;40.08;99814.41;7737952;32;40036;-83
2023/06/21 18:02:29;;;;;;;13.30;7.47;;;;;;;32.98;41.93;99795.66;7739935;32;40018;-84
2023/06/21 18:06:45;;;;;;;12.15;7.30;;;;;;;32.96;42.29;99792.47;7739954;32;37610;-83
2023/06/21 18:11:02;;;;;;;12.50;7.78;;;;;;;32.59;42.54;99782.88;7739952;32;37120;-83
2023/06/21 18:15:18;;;;;;;12.18;7.90;;;;;;;32.46;42.32;99803.16;7739830;32;39367;-83
2023/06/21 18:19:35;;;;;;;10.98;7.90;;;;;;;32.23;42.95;99815.09;7739827;32;40001;-83
2023/06/21 18:23:51;;;;;;;11.02;7.95;;;;;;;31.90;44.82;99850.44;7739761;32;37667;-83
2023/06/21 18:28:08;;;;;;;14.40;8.50;;;;;;;31.54;45.95;99867.62;7725938;32;36854;-83
2023/06/21 18:32:24;;;;;;;12.68;8.45;;;;;;;31.51;45.94;99874.91;7739840;32;40338;-83
2023/06/21 18:36:41;;;;;;;14.40;8.38;;;;;;;31.25;45.86;99884.69;7739571;32;40009;-83
2023/06/21 18:40:57;;;;;;;13.98;8.32;;;;;;;31.22;46.07;99879.91;7739601;32;37546;-83
2023/06/21 18:45:14;;;;;;;13.65;8.95;;;;;;;31.13;46.49;99891.56;7739497;32;37247;-83
2023/06/21 18:49:30;;;;;;;12.80;8.70;;;;;;;31.17;46.21;99902.84;7739502;32;39299;-83
2023/06/21 18:53:47;;;;;;;16.35;8.25;;;;;;;30.89;46.76;99913.78;7713056;32;40836;-87
2023/06/21 18:58:03;;;;;;;13.50;8.23;;;;;;;30.90;46.73;99898.47;7720507;32;37559;-87
2023/06/21 19:02:20;;;;;;;13.35;8.93;;;;;;;30.73;47.70;99882.47;7705731;32;36788;-86
2023/06/21 19:06:36;;;;;;;14.87;6.62;;;;;;;30.51;48.72;99961.31;7712318;32;39343;-83
2023/06/21 19:10:53;;;;;;;23.38;7.30;;;;;;;29.28;46.28;99955.87;7735109;32;40080;-81
2023/06/21 19:15:10;;;;;;;15.63;6.57;;;;;;;28.40;52.36;99956.53;7732860;32;37590;-81
2023/06/21 19:19:26;;;;;;;13.13;6.20;;;;;;;27.31;56.40;99953.06;7707465;32;37109;-81
2023/06/21 19:23:42;;;;;;;11.55;5.75;;;;;;;27.41;54.66;99962.78;7704476;32;39289;-79
2023/06/21 19:27:59;;;;;;;10.10;4.87;;;;;;;27.17;55.66;99967.66;7712078;32;40038;-79
2023/06/21 19:32:18;;;;;;;9.35;5.80;;;;;;;27.03;55.72;99948.69;7711547;32;37599;-79
2023/06/21 19:36:35;;;;;;;16.00;6.47;;;;;;;26.85;54.61;99940.06;7692951;32;37181;-79
2023/06/21 19:40:51;;;;;;;15.05;6.70;;;;;;;26.34;57.40;99966.44;7701908;32;39409;-79
2023/06/21 19:45:08;;;;;;;17.23;6.97;;;;;;;26.01;58.14;99978.25;7711898;32;39774;-80
2023/06/21 19:49:25;;;;;;;18.62;6.97;;;;;;;26.02;60.11;99985.44;7713303;32;38632;-79
2023/06/21 19:53:41;;;;;;;12.73;6.65;;;;;;;25.95;60.57;100007.66;7712021;32;38014;-78
2023/06/21 19:57:57;;;;;;;12.68;6.32;;;;;;;25.82;61.42;100027.34;7711923;32;39874;-78
2023/06/21 20:02:14;;;;;;;14.40;7.00;;;;;;;25.77;62.28;100047.19;7712627;32;40882;-80